Time;durP1;ratioP1;P1;durP2;ratioP2;P2;SDS_P1;SDS_P2;PMS_P1;PMS_P2;Temp;Humidity;BMP_temperature;BMP_pressure;BME280_temperature;BME280_humidity;BME280_pressure;Samples;Min_cycle;Max_cycle;Signal;HPM_P1;HPM_P2
2022/03/09 00:01:02;;;;;;;23.30;13.13;;;;;;;;;;7332827;19;153563;-15
2022/03/09 00:03:33;;;;;;;19.55;11.85;;;;;;;;;;7327506;19;161850;-13
2022/03/09 00:06:05;;;;;;;18.30;11.00;;;;;;;;;;7328565;19;162302;-14
2022/03/09 00:08:39;;;;;;;19.48;11.02;;;;;;;;;;7327928;19;154041;-14
2022/03/09 00:11:10;;;;;;;18.88;10.57;;;;;;;;;;7329054;19;153702;-15
2022/03/09 00:13:41;;;;;;;58.20;30.38;;;;;;;;;;7328592;19;161741;-14
2022/03/09 00:16:13;;;;;;;45.30;25.10;;;;;;;;;;7330125;19;162889;-13
2022/03/09 00:18:45;;;;;;;65.32;35.13;;;;;;;;;;7336677;19;154141;-13
2022/03/09 00:21:16;;;;;;;41.83;24.00;;;;;;;;;;7337417;19;153646;-14
2022/03/09 00:23:51;;;;;;;47.92;24.38;;;;;;;;;;7335273;19;161802;-13
2022/03/09 00:26:22;;;;;;;42.70;25.02;;;;;;;;;;7333792;19;162407;-15
2022/03/09 00:28:53;;;;;;;44.70;24.20;;;;;;;;;;7335631;19;154007;-15
2022/03/09 00:31:24;;;;;;;31.13;17.00;;;;;;;;;;7335632;19;153823;-14
2022/03/09 00:33:56;;;;;;;30.02;17.27;;;;;;;;;;7335321;19;161856;-14
2022/03/09 00:36:27;;;;;;;39.88;23.42;;;;;;;;;;7337247;19;162346;-14
2022/03/09 00:39:01;;;;;;;28.35;16.65;;;;;;;;;;7338425;19;153968;-15
2022/03/09 00:41:32;;;;;;;29.00;17.45;;;;;;;;;;7336812;19;153766;-14
2022/03/09 00:44:03;;;;;;;26.80;14.80;;;;;;;;;;7334045;19;161835;-15
2022/03/09 00:46:34;;;;;;;29.67;15.15;;;;;;;;;;7333247;19;162379;-14
2022/03/09 00:49:06;;;;;;;28.60;15.65;;;;;;;;;;7335161;19;153992;-15
2022/03/09 00:51:39;;;;;;;;;;;;;;;;;;7335661;19;153749;-13
2022/03/09 00:54:12;;;;;;;25.73;14.25;;;;;;;;;;7334843;19;161996;-15
2022/03/09 00:56:44;;;;;;;26.88;15.85;;;;;;;;;;7334634;19;162507;-15
2022/03/09 00:59:15;;;;;;;23.95;14.90;;;;;;;;;;7334983;19;153718;-13
2022/03/09 13:37:18;;;;;;;6.32;2.47;;;;;;;;;;7370418;19;132624;-13
2022/03/09 13:39:54;;;;;;;6.40;2.70;;;;;;;;;;7363141;19;153651;-14
2022/03/09 13:42:34;;;;;;;7.88;2.20;;;;;;;;;;7365303;19;161976;-14
2022/03/09 13:45:08;;;;;;;5.55;2.38;;;;;;;;;;7363760;19;162627;-15
2022/03/09 13:47:51;;;;;;;7.78;2.60;;;;;;;;;;7364799;19;153892;-16
2022/03/09 13:50:25;;;;;;;13.88;3.58;;;;;;;;;;7364721;19;153492;-14
2022/03/09 13:53:11;;;;;;;4.88;2.28;;;;;;;;;;7363949;19;161893;-21
2022/03/09 13:55:46;;;;;;;5.93;2.90;;;;;;;;;;7363949;19;162400;-15
2022/03/09 13:58:18;;;;;;;6.97;2.38;;;;;;;;;;7367576;19;154316;-14
2022/03/09 14:00:50;;;;;;;4.53;1.80;;;;;;;;;;7364341;19;153733;-14
2022/03/09 14:03:25;;;;;;;9.20;2.55;;;;;;;;;;7364126;19;161956;-15
2022/03/09 14:05:58;;;;;;;4.53;2.13;;;;;;;;;;7362657;19;162512;-15
2022/03/09 14:08:34;;;;;;;8.02;2.38;;;;;;;;;;7364392;19;153959;-14
2022/03/09 14:11:13;;;;;;;5.63;2.47;;;;;;;;;;7364280;19;153600;-13
2022/03/09 14:14:02;;;;;;;6.60;2.42;;;;;;;;;;7367735;19;161911;-13
2022/03/09 14:16:35;;;;;;;3.95;2.75;;;;;;;;;;7362664;19;162715;-13
2022/03/09 14:19:06;;;;;;;;;;;;;;;;;;7364523;19;154027;-14
2022/03/09 14:21:39;;;;;;;5.63;2.67;;;;;;;;;;7364294;19;153303;-15
2022/03/09 14:24:13;;;;;;;6.15;2.42;;;;;;;;;;7363437;19;161894;-15
2022/03/09 14:26:48;;;;;;;9.50;2.55;;;;;;;;;;7361440;19;162533;-13
2022/03/09 14:29:20;;;;;;;6.10;2.25;;;;;;;;;;7363824;19;154258;-13
2022/03/09 14:31:51;;;;;;;6.60;2.43;;;;;;;;;;7363709;19;153707;-14
2022/03/09 14:34:23;;;;;;;9.38;2.75;;;;;;;;;;7363087;19;162116;-15
2022/03/09 14:36:57;;;;;;;3.53;2.67;;;;;;;;;;7346371;19;162428;-15
2022/03/09 14:39:31;;;;;;;5.13;3.05;;;;;;;;;;7333542;19;154113;-15
2022/03/09 14:42:04;;;;;;;5.05;2.38;;;;;;;;;;7335426;19;153759;-15
2022/03/09 14:44:36;;;;;;;5.38;3.00;;;;;;;;;;7334242;19;161847;-13
2022/03/09 14:47:09;;;;;;;4.70;3.08;;;;;;;;;;7332312;19;162525;-16
2022/03/09 14:49:42;;;;;;;;;;;;;;;;;;7335108;19;153973;-15
2022/03/09 14:52:13;;;;;;;7.20;2.78;;;;;;;;;;7334484;19;153641;-14
2022/03/09 14:54:47;;;;;;;3.67;2.90;;;;;;;;;;7333740;19;161850;-15
2022/03/09 14:57:20;;;;;;;4.47;2.97;;;;;;;;;;7334795;19;162849;-14
2022/03/09 14:59:52;;;;;;;6.70;3.30;;;;;;;;;;7334382;19;154077;-15
2022/03/09 15:02:23;;;;;;;3.45;2.67;;;;;;;;;;7334272;19;153707;-20
2022/03/09 15:04:57;;;;;;;6.32;3.45;;;;;;;;;;7333656;19;161905;-15
2022/03/09 15:07:28;;;;;;;5.57;3.47;;;;;;;;;;7331536;19;162400;-15
2022/03/09 15:10:03;;;;;;;4.20;3.30;;;;;;;;;;7334085;19;153872;-15
2022/03/09 15:12:34;;;;;;;5.47;3.25;;;;;;;;;;7335535;19;153658;-16
2022/03/09 15:15:07;;;;;;;5.18;3.20;;;;;;;;;;7333313;19;161955;-15
2022/03/09 15:17:38;;;;;;;;;;;;;;;;;;7333918;19;162417;-14
2022/03/09 15:20:10;;;;;;;4.97;2.85;;;;;;;;;;7333402;19;154287;-15
2022/03/09 15:22:42;;;;;;;5.07;3.15;;;;;;;;;;7333468;19;153501;-13
2022/03/09 15:25:32;;;;;;;6.57;3.25;;;;;;;;;;7333142;19;161843;-13
2022/03/09 15:28:03;;;;;;;6.22;3.38;;;;;;;;;;7335727;19;162454;-15
2022/03/09 15:30:34;;;;;;;4.55;3.38;;;;;;;;;;7332353;19;154687;-14
2022/03/09 15:33:06;;;;;;;5.38;3.50;;;;;;;;;;7333422;19;153508;-16
2022/03/09 15:35:37;;;;;;;4.97;3.40;;;;;;;;;;7331826;19;162091;-17
2022/03/09 15:38:24;;;;;;;5.10;3.70;;;;;;;;;;7332927;19;162485;-14
2022/03/09 15:40:58;;;;;;;4.10;2.97;;;;;;;;;;7331756;19;153930;-15
2022/03/09 15:43:29;;;;;;;4.78;3.33;;;;;;;;;;7335029;19;153676;-15
2022/03/09 15:46:01;;;;;;;4.88;3.65;;;;;;;;;;7331978;19;161630;-14
2022/03/09 15:48:32;;;;;;;3.88;3.45;;;;;;;;;;7330007;19;162427;-13
2022/03/09 15:51:04;;;;;;;6.43;3.50;;;;;;;;;;7331404;19;154070;-15
2022/03/09 15:53:37;;;;;;;;;;;;;;;;;;7332877;19;153560;-14
2022/03/09 15:56:10;;;;;;;4.32;3.65;;;;;;;;;;7332351;19;161914;-15
2022/03/09 15:58:42;;;;;;;4.70;3.75;;;;;;;;;;7335904;19;162426;-15
2022/03/09 16:01:14;;;;;;;4.38;3.40;;;;;;;;;;7332661;19;153692;-15
2022/03/09 16:03:45;;;;;;;4.47;3.23;;;;;;;;;;7332537;19;153498;-14
2022/03/09 16:06:17;;;;;;;5.90;3.60;;;;;;;;;;7331364;19;161816;-14
2022/03/09 16:08:49;;;;;;;4.07;3.33;;;;;;;;;;7335478;19;162417;-11
2022/03/09 16:11:24;;;;;;;5.43;3.42;;;;;;;;;;7332399;19;153920;-13
2022/03/09 16:13:57;;;;;;;3.90;3.50;;;;;;;;;;7334249;19;153860;-12
2022/03/09 16:16:29;;;;;;;6.38;4.32;;;;;;;;;;7335006;19;161888;-13
2022/03/09 16:19:00;;;;;;;4.43;3.63;;;;;;;;;;7331666;19;162371;-14
2022/03/09 16:21:33;;;;;;;8.30;4.70;;;;;;;;;;7331852;19;154001;-13
2022/03/09 16:24:05;;;;;;;;;;;;;;;;;;7332693;19;153687;-13
2022/03/09 16:26:39;;;;;;;42.80;26.48;;;;;;;;;;7329966;19;162163;-13
2022/03/09 16:29:10;;;;;;;51.22;28.95;;;;;;;;;;7331392;19;162641;-15
2022/03/09 16:31:41;;;;;;;45.38;28.08;;;;;;;;;;7331831;19;153898;-13
2022/03/09 16:34:13;;;;;;;40.67;25.40;;;;;;;;;;7331708;19;153688;-12
2022/03/09 16:36:44;;;;;;;37.72;24.20;;;;;;;;;;7328673;19;161885;-15
2022/03/09 16:39:15;;;;;;;36.90;23.23;;;;;;;;;;7331279;19;162384;-14
2022/03/09 16:41:49;;;;;;;37.20;22.52;;;;;;;;;;7331703;19;154212;-14
2022/03/09 16:44:21;;;;;;;32.55;18.08;;;;;;;;;;7331544;19;153630;-13
2022/03/09 16:46:52;;;;;;;34.50;20.48;;;;;;;;;;7330612;19;162056;-17
2022/03/09 16:49:24;;;;;;;29.90;18.65;;;;;;;;;;7330959;19;162281;-14
2022/03/09 16:51:58;;;;;;;27.95;18.70;;;;;;;;;;7330984;19;153792;-15
2022/03/09 16:54:29;;;;;;;32.10;18.75;;;;;;;;;;7331126;19;153697;-14
2022/03/09 16:57:03;;;;;;;39.22;18.30;;;;;;;;;;7330515;19;161799;-15
2022/03/09 16:59:34;;;;;;;34.75;18.05;;;;;;;;;;7329492;19;162288;-14
2022/03/09 17:02:06;;;;;;;31.17;17.45;;;;;;;;;;7329555;19;154114;-15
2022/03/09 17:04:37;;;;;;;28.92;17.92;;;;;;;;;;7329143;19;153590;-13
2022/03/09 17:07:09;;;;;;;31.27;17.15;;;;;;;;;;7328448;19;161871;-13
2022/03/09 17:09:40;;;;;;;34.78;16.92;;;;;;;;;;7330093;19;162547;-13
2022/03/09 17:12:14;;;;;;;28.50;17.13;;;;;;;;;;7330629;19;154087;-15
2022/03/09 17:14:46;;;;;;;29.98;17.23;;;;;;;;;;7330198;19;153599;-15
2022/03/09 17:17:17;;;;;;;30.80;16.83;;;;;;;;;;7329926;19;161945;-14
2022/03/09 17:19:50;;;;;;;30.80;18.15;;;;;;;;;;7329811;19;162671;-13
2022/03/09 17:22:23;;;;;;;27.33;17.17;;;;;;;;;;7330252;19;154638;-13
2022/03/09 17:24:54;;;;;;;30.38;17.15;;;;;;;;;;7329855;19;153583;-14
2022/03/09 17:27:29;;;;;;;23.30;15.98;;;;;;;;;;7328754;19;161695;-14
2022/03/09 17:30:00;;;;;;;25.13;16.02;;;;;;;;;;7329450;19;162521;-15
2022/03/09 17:32:31;;;;;;;25.58;16.00;;;;;;;;;;7329570;19;153938;-14
2022/03/09 17:35:04;;;;;;;;;;;;;;;;;;7329382;19;153687;-14
2022/03/09 17:37:35;;;;;;;28.67;14.60;;;;;;;;;;7329218;19;162071;-14
2022/03/09 17:40:09;;;;;;;22.35;14.45;;;;;;;;;;7329177;19;162410;-13
2022/03/09 17:42:43;;;;;;;31.05;15.02;;;;;;;;;;7328096;19;153969;-13
2022/03/09 17:45:15;;;;;;;26.00;13.70;;;;;;;;;;7329399;19;153589;-14
2022/03/09 17:47:47;;;;;;;25.13;13.35;;;;;;;;;;7328044;19;161568;-14
2022/03/09 17:50:19;;;;;;;28.38;14.05;;;;;;;;;;7328841;19;162428;-14
2022/03/09 17:52:51;;;;;;;26.00;14.52;;;;;;;;;;7329139;19;153920;-14
2022/03/09 17:55:22;;;;;;;26.58;14.15;;;;;;;;;;7328914;19;153554;-14
2022/03/09 17:57:56;;;;;;;23.83;13.52;;;;;;;;;;7327369;19;162002;-14
2022/03/09 18:00:27;;;;;;;28.52;13.05;;;;;;;;;;7328331;19;162361;-14
2022/03/09 18:03:01;;;;;;;23.52;13.10;;;;;;;;;;7328773;19;153976;-15
2022/03/09 18:05:32;;;;;;;21.67;12.50;;;;;;;;;;7328708;19;153548;-15
2022/03/09 18:08:04;;;;;;;27.27;12.25;;;;;;;;;;7327230;19;161822;-15
2022/03/09 18:10:35;;;;;;;20.17;11.93;;;;;;;;;;7328308;19;162493;-17
2022/03/09 18:13:12;;;;;;;25.55;12.63;;;;;;;;;;7333692;19;154153;-14
2022/03/09 18:15:43;;;;;;;17.55;12.10;;;;;;;;;;7334136;19;153780;-14
2022/03/09 18:18:18;;;;;;;23.38;12.35;;;;;;;;;;7333704;19;161910;-16
2022/03/09 18:20:49;;;;;;;23.98;12.02;;;;;;;;;;7334937;19;162234;-16
2022/03/09 18:23:20;;;;;;;21.58;11.75;;;;;;;;;;7335146;19;153993;-15
2022/03/09 18:25:52;;;;;;;22.83;11.85;;;;;;;;;;7334066;19;153690;-16
2022/03/09 18:28:26;;;;;;;23.73;12.18;;;;;;;;;;7334008;19;161807;-18
2022/03/09 18:30:57;;;;;;;21.25;10.95;;;;;;;;;;7333550;19;162573;-14
2022/03/09 18:33:31;;;;;;;24.88;11.13;;;;;;;;;;7335158;19;153955;-15
2022/03/09 18:36:02;;;;;;;20.33;10.05;;;;;;;;;;7332001;19;153719;-14
2022/03/09 18:38:34;;;;;;;22.75;10.82;;;;;;;;;;7334505;19;161810;-14
2022/03/09 18:41:05;;;;;;;22.33;9.93;;;;;;;;;;7334432;19;162731;-13
2022/03/09 18:43:41;;;;;;;18.52;10.05;;;;;;;;;;7334842;19;154255;-14
2022/03/09 18:46:12;;;;;;;17.40;10.15;;;;;;;;;;7334606;19;153698;-15
2022/03/09 18:48:44;;;;;;;14.70;9.75;;;;;;;;;;7333193;19;161805;-14
2022/03/09 18:51:15;;;;;;;19.08;10.07;;;;;;;;;;7334125;19;162510;-14
2022/03/09 18:53:46;;;;;;;22.35;9.63;;;;;;;;;;7334396;19;153983;-14
2022/03/09 18:56:18;;;;;;;16.77;10.13;;;;;;;;;;7334315;19;153587;-14
2022/03/09 18:58:51;;;;;;;21.00;10.50;;;;;;;;;;7333656;19;161955;-14
2022/03/09 19:01:23;;;;;;;17.95;9.25;;;;;;;;;;7332799;19;162668;-14
2022/03/09 19:03:55;;;;;;;16.90;8.40;;;;;;;;;;7337825;19;154198;-14
2022/03/09 19:06:26;;;;;;;25.25;9.57;;;;;;;;;;7334044;19;153537;-14
2022/03/09 19:08:57;;;;;;;18.70;9.38;;;;;;;;;;7332602;19;161888;-15
2022/03/09 19:11:29;;;;;;;20.38;8.60;;;;;;;;;;7336305;19;162460;-14
2022/03/09 19:14:03;;;;;;;15.57;6.68;;;;;;;;;;7333639;19;153934;-15
2022/03/09 19:16:34;;;;;;;15.40;7.55;;;;;;;;;;7333148;19;153547;-14
2022/03/09 19:19:06;;;;;;;22.63;6.88;;;;;;;;;;7330488;19;161847;-14
2022/03/09 19:21:37;;;;;;;15.73;7.00;;;;;;;;;;7333042;19;162424;-14
2022/03/09 19:24:09;;;;;;;19.55;7.55;;;;;;;;;;7331445;19;153820;-25
2022/03/09 19:26:40;;;;;;;16.52;7.65;;;;;;;;;;7335590;19;153560;-15
2022/03/09 19:29:14;;;;;;;24.67;7.28;;;;;;;;;;7335223;19;161785;-14
2022/03/09 19:31:47;;;;;;;18.88;7.32;;;;;;;;;;7332222;19;162469;-14
2022/03/09 19:34:19;;;;;;;15.27;7.63;;;;;;;;;;7332349;19;154024;-15
2022/03/09 19:36:50;;;;;;;17.05;7.45;;;;;;;;;;7330345;19;153688;-13
2022/03/09 19:39:39;;;;;;;11.52;6.43;;;;;;;;;;7331096;19;162024;-14
2022/03/09 19:42:12;;;;;;;13.57;6.32;;;;;;;;;;7333642;19;162396;-15
2022/03/09 19:44:46;;;;;;;13.40;7.23;;;;;;;;;;7332529;19;154390;-14
2022/03/09 19:47:17;;;;;;;13.90;6.60;;;;;;;;;;7332726;19;153243;-14
2022/03/09 19:49:50;;;;;;;10.07;5.75;;;;;;;;;;7331333;19;161841;-14
2022/03/09 19:52:22;;;;;;;12.40;6.82;;;;;;;;;;7333817;19;162357;-14
2022/03/09 19:54:55;;;;;;;12.20;6.10;;;;;;;;;;7336205;19;154107;-13
2022/03/09 19:57:26;;;;;;;15.18;6.70;;;;;;;;;;7334073;19;153502;-15
2022/03/09 20:00:00;;;;;;;13.27;6.18;;;;;;;;;;7332057;19;162437;-15
2022/03/09 20:02:35;;;;;;;11.50;6.18;;;;;;;;;;7331599;19;162334;-14
2022/03/09 20:05:07;;;;;;;10.20;6.18;;;;;;;;;;7331920;19;154100;-13
2022/03/09 20:07:40;;;;;;;10.27;6.03;;;;;;;;;;7332085;19;153533;-15
2022/03/09 20:10:12;;;;;;;;;;;;;;;;;;7329765;19;161823;-13
2022/03/09 20:12:43;;;;;;;12.68;6.72;;;;;;;;;;7333736;19;162634;-15
2022/03/09 20:15:17;;;;;;;13.25;6.95;;;;;;;;;;7331696;19;153977;-15
2022/03/09 20:17:49;;;;;;;12.88;6.20;;;;;;;;;;7330272;19;153680;-16
2022/03/09 20:20:21;;;;;;;11.98;5.60;;;;;;;;;;7331077;19;161825;-14
2022/03/09 20:22:52;;;;;;;10.75;6.22;;;;;;;;;;7330002;19;162557;-15
2022/03/09 20:25:23;;;;;;;9.45;5.32;;;;;;;;;;7333016;19;154033;-15
2022/03/09 20:27:55;;;;;;;11.80;6.15;;;;;;;;;;7333457;19;153597;-15
2022/03/09 20:30:29;;;;;;;12.82;6.20;;;;;;;;;;7332704;19;161791;-15
2022/03/09 20:33:00;;;;;;;9.43;5.63;;;;;;;;;;7332647;19;162951;-13
2022/03/09 20:35:32;;;;;;;13.20;6.30;;;;;;;;;;7332054;19;154106;-13
2022/03/09 20:38:03;;;;;;;13.63;6.00;;;;;;;;;;7333297;19;153848;-15
2022/03/09 20:40:35;;;;;;;13.02;5.75;;;;;;;;;;7332754;19;161933;-14
2022/03/09 20:43:07;;;;;;;8.75;5.20;;;;;;;;;;7333492;19;162549;-15
2022/03/09 20:45:41;;;;;;;12.00;6.00;;;;;;;;;;7330966;19;154208;-15
2022/03/09 20:48:12;;;;;;;10.07;5.90;;;;;;;;;;7330880;19;154157;-15
2022/03/09 20:50:45;;;;;;;12.18;5.07;;;;;;;;;;7328926;19;162017;-13
2022/03/09 20:53:17;;;;;;;9.95;5.50;;;;;;;;;;7330149;19;162478;-14
2022/03/09 20:55:48;;;;;;;9.55;5.68;;;;;;;;;;7330653;19;154080;-14
2022/03/09 20:58:19;;;;;;;9.80;5.00;;;;;;;;;;7333905;19;153312;-15
2022/03/09 21:00:53;;;;;;;9.45;5.32;;;;;;;;;;7329880;19;161956;-13
2022/03/09 21:03:24;;;;;;;8.40;5.20;;;;;;;;;;7330427;19;162783;-13
2022/03/09 21:05:56;;;;;;;9.60;4.93;;;;;;;;;;7330816;19;154329;-14
2022/03/09 21:08:28;;;;;;;9.88;4.63;;;;;;;;;;7330424;19;153707;-15
2022/03/09 21:11:19;;;;;;;7.78;5.07;;;;;;;;;;7327669;19;161932;-15
2022/03/09 21:13:51;;;;;;;9.27;4.68;;;;;;;;;;7329319;19;162540;-14
2022/03/09 21:16:27;;;;;;;7.75;4.68;;;;;;;;;;7329937;19;153948;-15
2022/03/09 21:18:58;;;;;;;7.85;4.43;;;;;;;;;;7330584;19;153735;-25
2022/03/09 21:21:30;;;;;;;9.05;5.15;;;;;;;;;;7330105;19;162055;-14
2022/03/09 21:24:02;;;;;;;10.07;5.40;;;;;;;;;;7329461;19;162669;-14
2022/03/09 21:26:33;;;;;;;10.32;4.78;;;;;;;;;;7330163;19;153918;-13
2022/03/09 21:29:04;;;;;;;9.35;4.68;;;;;;;;;;7329863;19;153474;-15
2022/03/09 21:31:38;;;;;;;8.43;4.72;;;;;;;;;;7327312;19;161805;-13
2022/03/09 21:34:10;;;;;;;10.68;5.40;;;;;;;;;;7329402;19;162418;-14
2022/03/09 21:36:43;;;;;;;8.68;4.95;;;;;;;;;;7327168;19;154053;-14
2022/03/09 21:39:14;;;;;;;5.93;4.32;;;;;;;;;;7329410;19;153517;-15
2022/03/09 21:41:46;;;;;;;7.38;4.43;;;;;;;;;;7329415;19;162089;-15
2022/03/09 21:44:17;;;;;;;8.70;4.57;;;;;;;;;;7331281;19;162501;-15
2022/03/09 21:46:51;;;;;;;8.38;4.70;;;;;;;;;;7331196;19;154151;-15
2022/03/09 21:49:23;;;;;;;8.63;4.35;;;;;;;;;;7336281;19;153557;-14
2022/03/09 21:51:55;;;;;;;6.57;3.70;;;;;;;;;;7333858;19;162332;-14
2022/03/09 21:54:26;;;;;;;8.17;4.10;;;;;;;;;;7339152;19;162347;-13
2022/03/09 21:56:58;;;;;;;8.10;4.30;;;;;;;;;;7336924;19;153892;-15
2022/03/09 21:59:29;;;;;;;4.55;3.65;;;;;;;;;;7337448;19;153440;-13
2022/03/09 22:02:04;;;;;;;9.05;4.05;;;;;;;;;;7337319;19;161846;-14
2022/03/09 22:04:37;;;;;;;5.63;4.03;;;;;;;;;;7338018;19;162609;-13
2022/03/09 22:07:09;;;;;;;7.53;4.47;;;;;;;;;;7338425;19;154194;-14
2022/03/09 22:09:41;;;;;;;8.70;4.20;;;;;;;;;;7337775;19;153515;-14
2022/03/09 22:12:13;;;;;;;8.13;3.85;;;;;;;;;;7336013;19;161784;-14
2022/03/09 22:14:44;;;;;;;4.60;3.95;;;;;;;;;;7338146;19;162545;-12
2022/03/09 22:17:18;;;;;;;8.48;3.95;;;;;;;;;;7337009;19;154116;-14
2022/03/09 22:19:49;;;;;;;5.25;3.55;;;;;;;;;;7338135;19;153686;-16
2022/03/09 22:22:20;;;;;;;7.72;3.53;;;;;;;;;;7337580;19;161897;-16
2022/03/09 22:24:52;;;;;;;6.85;3.30;;;;;;;;;;7336629;19;162669;-16
2022/03/09 22:27:24;;;;;;;5.35;3.42;;;;;;;;;;7337388;19;153982;-15
2022/03/09 22:29:55;;;;;;;6.07;3.30;;;;;;;;;;7337794;19;153797;-15
2022/03/09 22:32:29;;;;;;;9.88;3.83;;;;;;;;;;7335866;19;161781;-15
2022/03/09 22:35:00;;;;;;;8.18;4.32;;;;;;;;;;7337029;19;162775;-16
2022/03/09 22:37:31;;;;;;;5.97;3.10;;;;;;;;;;7337584;19;154031;-16
2022/03/09 22:40:03;;;;;;;5.65;3.03;;;;;;;;;;7337160;19;153482;-15
2022/03/09 22:42:34;;;;;;;6.97;3.30;;;;;;;;;;7336572;19;161791;-15
2022/03/09 22:45:06;;;;;;;5.00;3.70;;;;;;;;;;7337125;19;162551;-14
2022/03/09 22:47:40;;;;;;;6.78;3.47;;;;;;;;;;7337559;19;154239;-22
2022/03/09 22:50:12;;;;;;;6.43;3.55;;;;;;;;;;7337473;19;153878;-15
2022/03/09 22:52:44;;;;;;;6.25;3.90;;;;;;;;;;7334998;19;161918;-16
2022/03/09 22:55:15;;;;;;;8.50;3.22;;;;;;;;;;7333600;19;162506;-15
2022/03/09 22:57:46;;;;;;;8.85;3.63;;;;;;;;;;7334368;19;153939;-15
2022/03/09 23:00:33;;;;;;;7.30;2.97;;;;;;;;;;7337666;19;153673;-15
2022/03/09 23:03:10;;;;;;;3.55;2.92;;;;;;;;;;7333295;19;161831;-15
2022/03/09 23:05:42;;;;;;;6.55;3.42;;;;;;;;;;7333020;19;162541;-15
2022/03/09 23:08:16;;;;;;;5.00;2.95;;;;;;;;;;7333310;19;153970;-16
2022/03/09 23:10:48;;;;;;;5.75;3.40;;;;;;;;;;7335303;19;153523;-14
2022/03/09 23:13:20;;;;;;;4.22;3.20;;;;;;;;;;7333364;19;162403;-16
2022/03/09 23:15:51;;;;;;;4.15;2.90;;;;;;;;;;7336346;19;162308;-12
2022/03/09 23:18:25;;;;;;;6.43;3.50;;;;;;;;;;7336137;19;154093;-15
2022/03/09 23:20:56;;;;;;;4.05;2.67;;;;;;;;;;7336860;19;153551;-14
2022/03/09 23:23:30;;;;;;;9.38;3.38;;;;;;;;;;7335558;19;161992;-15
2022/03/09 23:26:01;;;;;;;5.05;3.50;;;;;;;;;;7336152;19;162707;-14
2022/03/09 23:28:32;;;;;;;6.15;2.90;;;;;;;;;;7336355;19;153991;-15
2022/03/09 23:31:03;;;;;;;4.45;2.60;;;;;;;;;;7335801;19;153899;-14
2022/03/09 23:33:37;;;;;;;6.22;2.90;;;;;;;;;;7331834;19;161907;-14
2022/03/09 23:36:09;;;;;;;3.42;2.78;;;;;;;;;;7332473;19;162663;-15
2022/03/09 23:38:40;;;;;;;4.20;2.78;;;;;;;;;;7335187;19;154228;-14
2022/03/09 23:41:11;;;;;;;4.80;3.05;;;;;;;;;;7336170;19;153522;-15
2022/03/09 23:43:43;;;;;;;4.95;2.72;;;;;;;;;;7335391;19;163896;-13
2022/03/09 23:46:14;;;;;;;3.28;2.95;;;;;;;;;;7335850;19;162501;-16
2022/03/09 23:48:48;;;;;;;3.70;2.67;;;;;;;;;;7335884;19;155322;-12
2022/03/09 23:51:24;;;;;;;8.07;2.60;;;;;;;;;;7335557;19;153623;-14
2022/03/09 23:53:55;;;;;;;3.50;2.35;;;;;;;;;;7335140;19;161890;-13
2022/03/09 23:56:27;;;;;;;3.45;2.35;;;;;;;;;;7334809;19;162535;-12
2022/03/09 23:58:58;;;;;;;4.22;2.70;;;;;;;;;;7334917;19;154066;-14
